sensor_id;sensor_type;location;lat;lon;timestamp;temperature;humidity
12901;DHT22;6518;50.930;5.344;2023-09-19T00:01:33;17.20;95.00
12901;DHT22;6518;50.930;5.344;2023-09-19T00:04:02;17.20;95.20
12901;DHT22;6518;50.930;5.344;2023-09-19T00:06:29;17.20;95.40
12901;DHT22;6518;50.930;5.344;2023-09-19T00:08:57;17.10;95.60
12901;DHT22;6518;50.930;5.344;2023-09-19T00:11:26;17.10;96.10
12901;DHT22;6518;50.930;5.344;2023-09-19T00:13:53;17.00;96.40
12901;DHT22;6518;50.930;5.344;2023-09-19T00:16:20;17.00;96.40
12901;DHT22;6518;50.930;5.344;2023-09-19T00:18:48;17.00;96.60
12901;DHT22;6518;50.930;5.344;2023-09-19T00:21:16;17.00;96.80
12901;DHT22;6518;50.930;5.344;2023-09-19T00:23:45;17.00;97.00
12901;DHT22;6518;50.930;5.344;2023-09-19T00:26:12;17.00;97.10
12901;DHT22;6518;50.930;5.344;2023-09-19T00:28:39;16.90;97.30
12901;DHT22;6518;50.930;5.344;2023-09-19T00:31:08;16.90;97.40
12901;DHT22;6518;50.930;5.344;2023-09-19T00:33:35;16.90;97.60
12901;DHT22;6518;50.930;5.344;2023-09-19T00:36:02;16.90;97.70
12901;DHT22;6518;50.930;5.344;2023-09-19T00:38:32;16.90;98.30
12901;DHT22;6518;50.930;5.344;2023-09-19T00:40:59;16.80;98.20
12901;DHT22;6518;50.930;5.344;2023-09-19T00:43:27;16.80;98.30
12901;DHT22;6518;50.930;5.344;2023-09-19T00:45:56;16.80;98.50
12901;DHT22;6518;50.930;5.344;2023-09-19T00:48:24;16.80;98.70
12901;DHT22;6518;50.930;5.344;2023-09-19T00:50:54;16.80;98.80
12901;DHT22;6518;50.930;5.344;2023-09-19T00:53:23;16.90;99.00
12901;DHT22;6518;50.930;5.344;2023-09-19T00:55:54;16.90;99.00
12901;DHT22;6518;50.930;5.344;2023-09-19T00:58:21;16.90;99.20
12901;DHT22;6518;50.930;5.344;2023-09-19T01:00:49;16.80;99.30
12901;DHT22;6518;50.930;5.344;2023-09-19T01:03:17;16.80;99.60
12901;DHT22;6518;50.930;5.344;2023-09-19T01:05:44;16.80;99.90
12901;DHT22;6518;50.930;5.344;2023-09-19T01:08:11;16.80;99.90
12901;DHT22;6518;50.930;5.344;2023-09-19T01:10:42;16.80;99.90
12901;DHT22;6518;50.930;5.344;2023-09-19T01:13:18;16.80;99.90
12901;DHT22;6518;50.930;5.344;2023-09-19T01:15:57;16.80;99.90
12901;DHT22;6518;50.930;5.344;2023-09-19T01:18:31;16.70;99.90
12901;DHT22;6518;50.930;5.344;2023-09-19T01:21:07;16.70;99.90
12901;DHT22;6518;50.930;5.344;2023-09-19T01:23:49;16.70;99.90
12901;DHT22;6518;50.930;5.344;2023-09-19T01:26:30;16.60;99.90
12901;DHT22;6518;50.930;5.344;2023-09-19T01:29:23;16.60;99.90
12901;DHT22;6518;50.930;5.344;2023-09-19T01:32:03;16.60;99.90
12901;DHT22;6518;50.930;5.344;2023-09-19T01:34:44;16.60;99.90
12901;DHT22;6518;50.930;5.344;2023-09-19T01:37:12;16.60;99.90
12901;DHT22;6518;50.930;5.344;2023-09-19T01:39:44;16.60;99.90
12901;DHT22;6518;50.930;5.344;2023-09-19T01:42:21;16.60;99.90
12901;DHT22;6518;50.930;5.344;2023-09-19T01:44:57;16.50;99.90
12901;DHT22;6518;50.930;5.344;2023-09-19T01:47:32;16.50;99.90
12901;DHT22;6518;50.930;5.344;2023-09-19T01:50:07;16.60;99.90
12901;DHT22;6518;50.930;5.344;2023-09-19T01:52:45;16.50;99.90
12901;DHT22;6518;50.930;5.344;2023-09-19T01:55:14;16.50;99.90
12901;DHT22;6518;50.930;5.344;2023-09-19T01:57:49;16.50;99.90
12901;DHT22;6518;50.930;5.344;2023-09-19T02:00:20;16.60;99.90
12901;DHT22;6518;50.930;5.344;2023-09-19T02:02:50;16.60;99.90
12901;DHT22;6518;50.930;5.344;2023-09-19T02:05:25;16.60;99.90
12901;DHT22;6518;50.930;5.344;2023-09-19T02:07:53;16.60;99.90
12901;DHT22;6518;50.930;5.344;2023-09-19T02:10:21;16.60;99.90
12901;DHT22;6518;50.930;5.344;2023-09-19T02:12:48;16.60;99.90
12901;DHT22;6518;50.930;5.344;2023-09-19T02:15:16;16.50;99.90
12901;DHT22;6518;50.930;5.344;2023-09-19T02:17:43;16.50;99.90
12901;DHT22;6518;50.930;5.344;2023-09-19T02:20:13;16.50;99.90
12901;DHT22;6518;50.930;5.344;2023-09-19T02:22:41;16.50;99.90
12901;DHT22;6518;50.930;5.344;2023-09-19T02:25:08;16.40;99.90
12901;DHT22;6518;50.930;5.344;2023-09-19T02:27:35;16.50;99.90
12901;DHT22;6518;50.930;5.344;2023-09-19T02:30:04;16.50;99.90
12901;DHT22;6518;50.930;5.344;2023-09-19T02:32:31;16.50;99.90
12901;DHT22;6518;50.930;5.344;2023-09-19T02:35:01;16.50;99.90
12901;DHT22;6518;50.930;5.344;2023-09-19T02:37:31;16.40;99.90
12901;DHT22;6518;50.930;5.344;2023-09-19T02:39:58;16.40;99.90
12901;DHT22;6518;50.930;5.344;2023-09-19T02:42:25;16.40;99.90
12901;DHT22;6518;50.930;5.344;2023-09-19T02:44:52;16.40;99.90
12901;DHT22;6518;50.930;5.344;2023-09-19T02:47:19;16.40;99.90
12901;DHT22;6518;50.930;5.344;2023-09-19T02:49:46;16.40;99.90
12901;DHT22;6518;50.930;5.344;2023-09-19T02:52:13;16.40;99.90
12901;DHT22;6518;50.930;5.344;2023-09-19T02:54:42;16.40;99.90
12901;DHT22;6518;50.930;5.344;2023-09-19T02:57:11;16.40;99.90
12901;DHT22;6518;50.930;5.344;2023-09-19T02:59:39;16.40;99.90
12901;DHT22;6518;50.930;5.344;2023-09-19T03:02:07;16.30;99.90
12901;DHT22;6518;50.930;5.344;2023-09-19T03:04:35;16.30;99.90
12901;DHT22;6518;50.930;5.344;2023-09-19T03:07:02;16.30;99.90
12901;DHT22;6518;50.930;5.344;2023-09-19T03:09:30;16.30;99.90
12901;DHT22;6518;50.930;5.344;2023-09-19T03:11:58;16.30;99.90
12901;DHT22;6518;50.930;5.344;2023-09-19T03:14:26;16.30;99.90
12901;DHT22;6518;50.930;5.344;2023-09-19T03:16:55;16.20;99.90
12901;DHT22;6518;50.930;5.344;2023-09-19T03:19:22;16.20;99.90
12901;DHT22;6518;50.930;5.344;2023-09-19T03:21:51;16.20;99.90
12901;DHT22;6518;50.930;5.344;2023-09-19T03:24:19;16.20;99.90
12901;DHT22;6518;50.930;5.344;2023-09-19T03:26:46;16.20;99.90
12901;DHT22;6518;50.930;5.344;2023-09-19T03:29:14;16.20;99.90
12901;DHT22;6518;50.930;5.344;2023-09-19T03:31:42;16.20;99.90
12901;DHT22;6518;50.930;5.344;2023-09-19T03:34:10;16.20;99.90
12901;DHT22;6518;50.930;5.344;2023-09-19T03:36:36;16.20;99.90
12901;DHT22;6518;50.930;5.344;2023-09-19T03:39:03;16.10;99.90
12901;DHT22;6518;50.930;5.344;2023-09-19T03:41:31;16.00;99.90
12901;DHT22;6518;50.930;5.344;2023-09-19T03:43:58;16.10;99.90
12901;DHT22;6518;50.930;5.344;2023-09-19T03:46:27;16.10;99.90
12901;DHT22;6518;50.930;5.344;2023-09-19T03:48:54;16.10;99.90
12901;DHT22;6518;50.930;5.344;2023-09-19T03:51:21;16.10;99.90
12901;DHT22;6518;50.930;5.344;2023-09-19T03:53:48;16.20;99.90
12901;DHT22;6518;50.930;5.344;2023-09-19T03:56:15;16.20;99.90
12901;DHT22;6518;50.930;5.344;2023-09-19T03:58:43;16.20;99.90
12901;DHT22;6518;50.930;5.344;2023-09-19T04:01:10;16.20;99.90
12901;DHT22;6518;50.930;5.344;2023-09-19T04:03:40;16.20;99.90
12901;DHT22;6518;50.930;5.344;2023-09-19T04:06:13;16.20;99.90
12901;DHT22;6518;50.930;5.344;2023-09-19T04:08:39;16.10;99.90
12901;DHT22;6518;50.930;5.344;2023-09-19T04:11:06;16.10;99.90
12901;DHT22;6518;50.930;5.344;2023-09-19T04:13:33;16.10;99.90
12901;DHT22;6518;50.930;5.344;2023-09-19T04:16:00;16.00;99.90
12901;DHT22;6518;50.930;5.344;2023-09-19T04:18:28;16.10;99.90
12901;DHT22;6518;50.930;5.344;2023-09-19T04:20:58;16.10;99.90
12901;DHT22;6518;50.930;5.344;2023-09-19T04:23:25;16.10;99.90
12901;DHT22;6518;50.930;5.344;2023-09-19T04:25:53;16.10;99.90
12901;DHT22;6518;50.930;5.344;2023-09-19T04:28:20;16.10;99.90
12901;DHT22;6518;50.930;5.344;2023-09-19T04:30:47;16.00;99.90
12901;DHT22;6518;50.930;5.344;2023-09-19T04:33:14;16.00;99.90
12901;DHT22;6518;50.930;5.344;2023-09-19T04:35:41;16.00;99.90
12901;DHT22;6518;50.930;5.344;2023-09-19T04:38:11;16.10;99.90
12901;DHT22;6518;50.930;5.344;2023-09-19T04:40:39;16.10;99.90
12901;DHT22;6518;50.930;5.344;2023-09-19T04:43:06;16.10;99.90
12901;DHT22;6518;50.930;5.344;2023-09-19T04:45:33;16.10;99.90
12901;DHT22;6518;50.930;5.344;2023-09-19T04:48:00;16.10;99.90
12901;DHT22;6518;50.930;5.344;2023-09-19T04:50:28;16.10;99.90
12901;DHT22;6518;50.930;5.344;2023-09-19T04:52:55;16.00;99.90
12901;DHT22;6518;50.930;5.344;2023-09-19T04:55:23;16.00;99.90
12901;DHT22;6518;50.930;5.344;2023-09-19T04:57:50;16.00;99.90
12901;DHT22;6518;50.930;5.344;2023-09-19T05:00:19;16.00;99.90
12901;DHT22;6518;50.930;5.344;2023-09-19T05:02:49;16.00;99.90
12901;DHT22;6518;50.930;5.344;2023-09-19T05:05:18;16.00;99.90
12901;DHT22;6518;50.930;5.344;2023-09-19T05:07:45;16.00;99.90
12901;DHT22;6518;50.930;5.344;2023-09-19T05:10:13;16.00;99.90
12901;DHT22;6518;50.930;5.344;2023-09-19T05:12:42;16.00;99.90
12901;DHT22;6518;50.930;5.344;2023-09-19T05:15:12;16.00;99.90
12901;DHT22;6518;50.930;5.344;2023-09-19T05:17:47;16.00;99.90
12901;DHT22;6518;50.930;5.344;2023-09-19T05:20:14;16.00;99.90
12901;DHT22;6518;50.930;5.344;2023-09-19T05:22:50;16.00;99.90
12901;DHT22;6518;50.930;5.344;2023-09-19T05:25:17;15.90;99.90
12901;DHT22;6518;50.930;5.344;2023-09-19T05:27:45;15.90;99.90
12901;DHT22;6518;50.930;5.344;2023-09-19T05:30:13;15.90;99.90
12901;DHT22;6518;50.930;5.344;2023-09-19T05:32:41;15.90;99.90
12901;DHT22;6518;50.930;5.344;2023-09-19T05:35:09;15.90;99.90
12901;DHT22;6518;50.930;5.344;2023-09-19T05:37:38;15.80;99.90
12901;DHT22;6518;50.930;5.344;2023-09-19T05:40:06;15.80;99.90
12901;DHT22;6518;50.930;5.344;2023-09-19T05:42:36;15.80;99.90
12901;DHT22;6518;50.930;5.344;2023-09-19T05:45:06;15.80;99.90
12901;DHT22;6518;50.930;5.344;2023-09-19T05:47:33;15.70;99.90
12901;DHT22;6518;50.930;5.344;2023-09-19T05:50:00;15.70;99.90
12901;DHT22;6518;50.930;5.344;2023-09-19T05:52:27;15.70;99.90
12901;DHT22;6518;50.930;5.344;2023-09-19T05:54:54;15.70;99.90
12901;DHT22;6518;50.930;5.344;2023-09-19T05:57:22;15.70;99.90
12901;DHT22;6518;50.930;5.344;2023-09-19T05:59:50;15.80;99.90
12901;DHT22;6518;50.930;5.344;2023-09-19T06:02:18;15.80;99.90
12901;DHT22;6518;50.930;5.344;2023-09-19T06:04:45;15.80;99.90
12901;DHT22;6518;50.930;5.344;2023-09-19T06:07:12;15.80;99.90
12901;DHT22;6518;50.930;5.344;2023-09-19T06:09:40;15.90;99.90
12901;DHT22;6518;50.930;5.344;2023-09-19T06:12:08;15.90;99.90
12901;DHT22;6518;50.930;5.344;2023-09-19T06:14:35;16.00;99.90
12901;DHT22;6518;50.930;5.344;2023-09-19T06:17:02;16.00;99.90
12901;DHT22;6518;50.930;5.344;2023-09-19T06:19:30;16.00;99.90
12901;DHT22;6518;50.930;5.344;2023-09-19T06:21:58;16.00;99.90
12901;DHT22;6518;50.930;5.344;2023-09-19T06:24:26;16.10;99.90
12901;DHT22;6518;50.930;5.344;2023-09-19T06:26:54;16.10;99.90
12901;DHT22;6518;50.930;5.344;2023-09-19T06:29:21;16.10;99.90
12901;DHT22;6518;50.930;5.344;2023-09-19T06:31:48;16.10;99.90
12901;DHT22;6518;50.930;5.344;2023-09-19T06:34:16;16.20;99.90
12901;DHT22;6518;50.930;5.344;2023-09-19T06:36:45;16.20;99.90
12901;DHT22;6518;50.930;5.344;2023-09-19T06:39:12;16.20;99.90
12901;DHT22;6518;50.930;5.344;2023-09-19T06:41:39;16.30;99.90
12901;DHT22;6518;50.930;5.344;2023-09-19T06:44:07;16.30;99.90
12901;DHT22;6518;50.930;5.344;2023-09-19T06:46:35;16.40;99.90
12901;DHT22;6518;50.930;5.344;2023-09-19T06:49:04;16.40;99.90
12901;DHT22;6518;50.930;5.344;2023-09-19T06:51:32;16.50;99.90
12901;DHT22;6518;50.930;5.344;2023-09-19T06:54:01;16.50;99.90
12901;DHT22;6518;50.930;5.344;2023-09-19T06:56:30;16.50;99.90
12901;DHT22;6518;50.930;5.344;2023-09-19T06:58:58;16.50;99.90
12901;DHT22;6518;50.930;5.344;2023-09-19T07:01:25;16.60;99.90
12901;DHT22;6518;50.930;5.344;2023-09-19T07:03:56;16.70;99.90
12901;DHT22;6518;50.930;5.344;2023-09-19T07:06:23;16.70;99.90
12901;DHT22;6518;50.930;5.344;2023-09-19T07:08:51;16.80;99.90
12901;DHT22;6518;50.930;5.344;2023-09-19T07:11:20;16.90;99.90
12901;DHT22;6518;50.930;5.344;2023-09-19T07:13:47;17.00;99.90
12901;DHT22;6518;50.930;5.344;2023-09-19T07:16:13;17.00;99.90
12901;DHT22;6518;50.930;5.344;2023-09-19T07:18:52;17.10;99.90
12901;DHT22;6518;50.930;5.344;2023-09-19T07:21:20;17.10;99.90
12901;DHT22;6518;50.930;5.344;2023-09-19T07:23:48;17.10;99.90
12901;DHT22;6518;50.930;5.344;2023-09-19T07:26:15;17.10;99.90
12901;DHT22;6518;50.930;5.344;2023-09-19T07:28:43;17.10;99.90
12901;DHT22;6518;50.930;5.344;2023-09-19T07:31:10;17.10;99.90
12901;DHT22;6518;50.930;5.344;2023-09-19T07:33:40;17.20;99.90
12901;DHT22;6518;50.930;5.344;2023-09-19T07:36:10;17.20;99.90
12901;DHT22;6518;50.930;5.344;2023-09-19T07:38:39;17.30;99.90
12901;DHT22;6518;50.930;5.344;2023-09-19T07:41:06;17.30;99.90
12901;DHT22;6518;50.930;5.344;2023-09-19T07:43:34;17.30;99.90
12901;DHT22;6518;50.930;5.344;2023-09-19T07:46:05;17.40;99.90
12901;DHT22;6518;50.930;5.344;2023-09-19T07:48:33;17.50;99.50
12901;DHT22;6518;50.930;5.344;2023-09-19T07:51:05;17.50;99.00
12901;DHT22;6518;50.930;5.344;2023-09-19T07:53:32;17.50;98.80
12901;DHT22;6518;50.930;5.344;2023-09-19T07:56:04;17.50;98.60
12901;DHT22;6518;50.930;5.344;2023-09-19T07:58:32;17.60;98.40
12901;DHT22;6518;50.930;5.344;2023-09-19T08:01:06;17.60;98.40
12901;DHT22;6518;50.930;5.344;2023-09-19T08:03:33;17.80;98.20
12901;DHT22;6518;50.930;5.344;2023-09-19T08:06:00;17.80;97.10
12901;DHT22;6518;50.930;5.344;2023-09-19T08:08:27;17.90;96.70
12901;DHT22;6518;50.930;5.344;2023-09-19T08:10:54;17.90;96.70
12901;DHT22;6518;50.930;5.344;2023-09-19T08:13:22;18.00;96.50
12901;DHT22;6518;50.930;5.344;2023-09-19T08:15:49;18.10;95.50
12901;DHT22;6518;50.930;5.344;2023-09-19T08:18:18;18.10;95.10
12901;DHT22;6518;50.930;5.344;2023-09-19T08:20:50;18.10;94.60
12901;DHT22;6518;50.930;5.344;2023-09-19T08:23:17;18.00;94.40
12901;DHT22;6518;50.930;5.344;2023-09-19T08:25:46;18.00;94.60
12901;DHT22;6518;50.930;5.344;2023-09-19T08:28:13;18.10;94.60
12901;DHT22;6518;50.930;5.344;2023-09-19T08:30:45;18.10;94.20
12901;DHT22;6518;50.930;5.344;2023-09-19T08:33:13;18.20;94.30
12901;DHT22;6518;50.930;5.344;2023-09-19T08:35:42;18.30;94.30
12901;DHT22;6518;50.930;5.344;2023-09-19T08:38:11;18.30;93.90
12901;DHT22;6518;50.930;5.344;2023-09-19T08:40:39;18.40;93.60
12901;DHT22;6518;50.930;5.344;2023-09-19T08:43:08;18.40;92.60
12901;DHT22;6518;50.930;5.344;2023-09-19T08:45:36;18.40;92.90
12901;DHT22;6518;50.930;5.344;2023-09-19T08:48:17;18.40;92.60
12901;DHT22;6518;50.930;5.344;2023-09-19T08:50:51;18.50;92.40
12901;DHT22;6518;50.930;5.344;2023-09-19T08:53:27;18.50;92.50
12901;DHT22;6518;50.930;5.344;2023-09-19T08:55:59;18.60;92.40
12901;DHT22;6518;50.930;5.344;2023-09-19T08:58:34;18.60;92.20
12901;DHT22;6518;50.930;5.344;2023-09-19T09:01:07;18.70;92.10
12901;DHT22;6518;50.930;5.344;2023-09-19T09:03:37;18.80;92.20
12901;DHT22;6518;50.930;5.344;2023-09-19T09:06:09;18.90;91.80
12901;DHT22;6518;50.930;5.344;2023-09-19T09:08:39;19.00;90.80
12901;DHT22;6518;50.930;5.344;2023-09-19T09:11:06;19.00;90.50
12901;DHT22;6518;50.930;5.344;2023-09-19T09:13:35;19.00;90.10
12901;DHT22;6518;50.930;5.344;2023-09-19T09:16:02;19.00;90.20
12901;DHT22;6518;50.930;5.344;2023-09-19T09:18:29;19.00;89.40
12901;DHT22;6518;50.930;5.344;2023-09-19T09:20:56;19.00;89.00
12901;DHT22;6518;50.930;5.344;2023-09-19T09:23:30;19.00;88.30
12901;DHT22;6518;50.930;5.344;2023-09-19T09:25:58;19.20;88.10
12901;DHT22;6518;50.930;5.344;2023-09-19T09:28:31;19.10;87.50
12901;DHT22;6518;50.930;5.344;2023-09-19T09:30:59;19.20;86.80
12901;DHT22;6518;50.930;5.344;2023-09-19T09:33:28;19.30;86.20
12901;DHT22;6518;50.930;5.344;2023-09-19T09:35:56;19.30;86.40
12901;DHT22;6518;50.930;5.344;2023-09-19T09:38:28;19.40;84.90
12901;DHT22;6518;50.930;5.344;2023-09-19T09:40:58;19.40;84.60
12901;DHT22;6518;50.930;5.344;2023-09-19T09:43:33;19.50;84.00
12901;DHT22;6518;50.930;5.344;2023-09-19T09:46:11;19.60;84.00
12901;DHT22;6518;50.930;5.344;2023-09-19T09:49:10;19.70;84.00
12901;DHT22;6518;50.930;5.344;2023-09-19T09:51:48;19.70;83.00
12901;DHT22;6518;50.930;5.344;2023-09-19T09:54:27;19.80;83.20
12901;DHT22;6518;50.930;5.344;2023-09-19T09:57:01;19.80;80.90
12901;DHT22;6518;50.930;5.344;2023-09-19T09:59:49;19.70;81.50
12901;DHT22;6518;50.930;5.344;2023-09-19T10:02:19;19.70;81.30
12901;DHT22;6518;50.930;5.344;2023-09-19T10:04:52;19.70;81.50
12901;DHT22;6518;50.930;5.344;2023-09-19T10:07:29;19.60;79.70
12901;DHT22;6518;50.930;5.344;2023-09-19T10:10:05;19.60;80.10
12901;DHT22;6518;50.930;5.344;2023-09-19T10:12:47;19.60;80.60
12901;DHT22;6518;50.930;5.344;2023-09-19T10:15:17;19.60;80.50
12901;DHT22;6518;50.930;5.344;2023-09-19T10:17:46;19.60;80.40
12901;DHT22;6518;50.930;5.344;2023-09-19T10:20:15;19.60;80.00
12901;DHT22;6518;50.930;5.344;2023-09-19T10:23:03;19.60;79.50
12901;DHT22;6518;50.930;5.344;2023-09-19T10:25:37;19.60;79.40
12901;DHT22;6518;50.930;5.344;2023-09-19T10:28:06;19.70;79.00
12901;DHT22;6518;50.930;5.344;2023-09-19T10:30:41;19.60;78.80
12901;DHT22;6518;50.930;5.344;2023-09-19T10:33:11;19.60;79.00
12901;DHT22;6518;50.930;5.344;2023-09-19T10:35:39;19.70;79.10
12901;DHT22;6518;50.930;5.344;2023-09-19T10:38:10;19.70;78.80
12901;DHT22;6518;50.930;5.344;2023-09-19T10:40:39;19.80;79.50
12901;DHT22;6518;50.930;5.344;2023-09-19T10:43:12;19.80;77.40
12901;DHT22;6518;50.930;5.344;2023-09-19T10:45:41;19.80;77.60
12901;DHT22;6518;50.930;5.344;2023-09-19T10:48:10;19.90;78.00
12901;DHT22;6518;50.930;5.344;2023-09-19T10:50:43;20.00;78.10
12901;DHT22;6518;50.930;5.344;2023-09-19T10:53:12;20.10;76.10
12901;DHT22;6518;50.930;5.344;2023-09-19T10:55:49;20.10;75.70
12901;DHT22;6518;50.930;5.344;2023-09-19T10:58:28;20.10;76.60
12901;DHT22;6518;50.930;5.344;2023-09-19T11:00:56;20.10;77.00
12901;DHT22;6518;50.930;5.344;2023-09-19T11:03:27;20.30;77.30
12901;DHT22;6518;50.930;5.344;2023-09-19T11:06:07;20.40;76.00
12901;DHT22;6518;50.930;5.344;2023-09-19T11:08:59;20.40;75.30
12901;DHT22;6518;50.930;5.344;2023-09-19T11:11:53;20.50;74.70
12901;DHT22;6518;50.930;5.344;2023-09-19T11:14:30;20.50;74.80
12901;DHT22;6518;50.930;5.344;2023-09-19T11:20:23;20.60;74.60
12901;DHT22;6518;50.930;5.344;2023-09-19T11:23:25;20.60;73.50
12901;DHT22;6518;50.930;5.344;2023-09-19T11:25:53;20.60;72.40
12901;DHT22;6518;50.930;5.344;2023-09-19T11:28:36;20.60;72.60
12901;DHT22;6518;50.930;5.344;2023-09-19T11:34:44;20.60;72.60
12901;DHT22;6518;50.930;5.344;2023-09-19T11:40:35;20.80;73.60
12901;DHT22;6518;50.930;5.344;2023-09-19T11:46:08;21.00;71.50
12901;DHT22;6518;50.930;5.344;2023-09-19T11:48:35;21.10;71.70
12901;DHT22;6518;50.930;5.344;2023-09-19T11:51:14;21.10;71.30
12901;DHT22;6518;50.930;5.344;2023-09-19T11:53:57;21.20;71.60
12901;DHT22;6518;50.930;5.344;2023-09-19T11:56:26;21.20;71.00
12901;DHT22;6518;50.930;5.344;2023-09-19T11:58:54;21.30;70.80
12901;DHT22;6518;50.930;5.344;2023-09-19T12:01:27;21.10;70.90
12901;DHT22;6518;50.930;5.344;2023-09-19T12:03:57;21.30;71.30
12901;DHT22;6518;50.930;5.344;2023-09-19T12:06:25;21.30;71.50
12901;DHT22;6518;50.930;5.344;2023-09-19T12:08:54;21.40;71.10
12901;DHT22;6518;50.930;5.344;2023-09-19T12:11:23;21.40;71.10
12901;DHT22;6518;50.930;5.344;2023-09-19T12:13:52;21.50;71.10
12901;DHT22;6518;50.930;5.344;2023-09-19T12:16:26;21.50;71.00
12901;DHT22;6518;50.930;5.344;2023-09-19T12:18:56;21.50;70.80
12901;DHT22;6518;50.930;5.344;2023-09-19T12:21:25;21.50;70.20
12901;DHT22;6518;50.930;5.344;2023-09-19T12:24:04;21.60;70.40
12901;DHT22;6518;50.930;5.344;2023-09-19T12:26:39;21.50;69.80
12901;DHT22;6518;50.930;5.344;2023-09-19T12:29:12;21.50;69.80
12901;DHT22;6518;50.930;5.344;2023-09-19T12:31:51;21.60;70.30
12901;DHT22;6518;50.930;5.344;2023-09-19T12:34:21;21.60;69.40
12901;DHT22;6518;50.930;5.344;2023-09-19T12:37:10;21.60;69.80
12901;DHT22;6518;50.930;5.344;2023-09-19T12:39:47;21.60;69.80
12901;DHT22;6518;50.930;5.344;2023-09-19T12:42:17;21.70;69.60
12901;DHT22;6518;50.930;5.344;2023-09-19T12:44:47;21.70;69.30
12901;DHT22;6518;50.930;5.344;2023-09-19T12:47:18;21.70;68.90
12901;DHT22;6518;50.930;5.344;2023-09-19T12:50:10;21.70;68.80
12901;DHT22;6518;50.930;5.344;2023-09-19T12:52:44;21.70;68.70
12901;DHT22;6518;50.930;5.344;2023-09-19T12:55:23;21.50;68.90
12901;DHT22;6518;50.930;5.344;2023-09-19T12:58:02;21.40;69.50
12901;DHT22;6518;50.930;5.344;2023-09-19T13:00:35;21.30;70.60
12901;DHT22;6518;50.930;5.344;2023-09-19T13:03:15;21.20;70.10
12901;DHT22;6518;50.930;5.344;2023-09-19T13:05:50;21.10;70.50
12901;DHT22;6518;50.930;5.344;2023-09-19T13:08:18;21.20;70.60
12901;DHT22;6518;50.930;5.344;2023-09-19T13:11:01;21.30;70.60
12901;DHT22;6518;50.930;5.344;2023-09-19T13:13:29;21.40;70.30
12901;DHT22;6518;50.930;5.344;2023-09-19T13:15:56;21.40;70.00
12901;DHT22;6518;50.930;5.344;2023-09-19T13:18:25;21.40;69.90
12901;DHT22;6518;50.930;5.344;2023-09-19T13:21:05;21.40;70.00
12901;DHT22;6518;50.930;5.344;2023-09-19T13:23:36;21.40;70.20
12901;DHT22;6518;50.930;5.344;2023-09-19T13:26:03;21.40;70.10
12901;DHT22;6518;50.930;5.344;2023-09-19T13:28:31;21.40;69.80
12901;DHT22;6518;50.930;5.344;2023-09-19T13:30:58;21.40;71.10
12901;DHT22;6518;50.930;5.344;2023-09-19T13:33:26;21.40;70.30
12901;DHT22;6518;50.930;5.344;2023-09-19T13:35:53;21.50;70.30
12901;DHT22;6518;50.930;5.344;2023-09-19T13:38:23;21.60;70.50
12901;DHT22;6518;50.930;5.344;2023-09-19T13:40:51;21.60;70.30
12901;DHT22;6518;50.930;5.344;2023-09-19T13:43:19;21.50;69.90
12901;DHT22;6518;50.930;5.344;2023-09-19T13:45:47;21.50;70.20
12901;DHT22;6518;50.930;5.344;2023-09-19T13:48:15;21.50;70.60
12901;DHT22;6518;50.930;5.344;2023-09-19T13:50:49;21.60;70.60
12901;DHT22;6518;50.930;5.344;2023-09-19T13:53:16;21.70;70.00
12901;DHT22;6518;50.930;5.344;2023-09-19T13:55:43;21.60;70.10
12901;DHT22;6518;50.930;5.344;2023-09-19T13:58:11;21.70;69.80
12901;DHT22;6518;50.930;5.344;2023-09-19T14:00:38;21.60;70.00
12901;DHT22;6518;50.930;5.344;2023-09-19T14:03:05;21.50;70.40
12901;DHT22;6518;50.930;5.344;2023-09-19T14:05:32;21.40;71.50
12901;DHT22;6518;50.930;5.344;2023-09-19T14:08:00;21.40;70.90
12901;DHT22;6518;50.930;5.344;2023-09-19T14:10:29;21.50;71.30
12901;DHT22;6518;50.930;5.344;2023-09-19T14:12:57;21.20;71.50
12901;DHT22;6518;50.930;5.344;2023-09-19T14:15:25;21.20;71.40
12901;DHT22;6518;50.930;5.344;2023-09-19T14:17:56;21.10;71.10
12901;DHT22;6518;50.930;5.344;2023-09-19T14:20:23;21.00;71.40
12901;DHT22;6518;50.930;5.344;2023-09-19T14:22:50;21.00;71.60
12901;DHT22;6518;50.930;5.344;2023-09-19T14:25:18;21.00;71.50
12901;DHT22;6518;50.930;5.344;2023-09-19T14:27:46;20.90;71.80
12901;DHT22;6518;50.930;5.344;2023-09-19T14:30:14;20.90;72.20
12901;DHT22;6518;50.930;5.344;2023-09-19T14:32:41;20.90;72.60
12901;DHT22;6518;50.930;5.344;2023-09-19T14:35:08;20.90;72.60
12901;DHT22;6518;50.930;5.344;2023-09-19T14:37:36;20.90;72.70
12901;DHT22;6518;50.930;5.344;2023-09-19T14:40:05;20.80;72.70
12901;DHT22;6518;50.930;5.344;2023-09-19T14:42:38;20.90;72.60
12901;DHT22;6518;50.930;5.344;2023-09-19T14:45:06;20.90;72.50
12901;DHT22;6518;50.930;5.344;2023-09-19T14:47:33;21.00;72.60
12901;DHT22;6518;50.930;5.344;2023-09-19T14:50:01;21.00;72.40
12901;DHT22;6518;50.930;5.344;2023-09-19T14:52:32;21.10;72.60
12901;DHT22;6518;50.930;5.344;2023-09-19T14:54:59;21.20;72.70
12901;DHT22;6518;50.930;5.344;2023-09-19T14:57:27;21.20;72.10
12901;DHT22;6518;50.930;5.344;2023-09-19T14:59:56;21.20;72.30
12901;DHT22;6518;50.930;5.344;2023-09-19T15:02:23;21.20;73.10
12901;DHT22;6518;50.930;5.344;2023-09-19T15:04:51;21.10;72.40
12901;DHT22;6518;50.930;5.344;2023-09-19T15:07:18;21.20;72.90
12901;DHT22;6518;50.930;5.344;2023-09-19T15:09:45;20.90;72.60
12901;DHT22;6518;50.930;5.344;2023-09-19T15:12:13;21.20;72.80
12901;DHT22;6518;50.930;5.344;2023-09-19T15:14:40;21.20;72.50
12901;DHT22;6518;50.930;5.344;2023-09-19T15:17:09;21.20;72.40
12901;DHT22;6518;50.930;5.344;2023-09-19T15:19:36;21.20;72.40
12901;DHT22;6518;50.930;5.344;2023-09-19T15:22:04;21.30;72.10
12901;DHT22;6518;50.930;5.344;2023-09-19T15:24:32;21.30;72.20
12901;DHT22;6518;50.930;5.344;2023-09-19T15:27:00;21.40;72.40
12901;DHT22;6518;50.930;5.344;2023-09-19T15:29:27;21.40;72.20
12901;DHT22;6518;50.930;5.344;2023-09-19T15:31:55;21.40;71.70
12901;DHT22;6518;50.930;5.344;2023-09-19T15:34:29;21.50;71.80
12901;DHT22;6518;50.930;5.344;2023-09-19T15:36:56;21.50;71.50
12901;DHT22;6518;50.930;5.344;2023-09-19T15:39:23;21.50;71.50
12901;DHT22;6518;50.930;5.344;2023-09-19T15:41:50;21.50;71.00
12901;DHT22;6518;50.930;5.344;2023-09-19T15:44:17;21.40;71.30
12901;DHT22;6518;50.930;5.344;2023-09-19T15:46:45;21.40;71.70
12901;DHT22;6518;50.930;5.344;2023-09-19T15:49:12;21.40;71.40
12901;DHT22;6518;50.930;5.344;2023-09-19T15:51:41;21.30;71.30
12901;DHT22;6518;50.930;5.344;2023-09-19T15:54:10;21.10;71.60
12901;DHT22;6518;50.930;5.344;2023-09-19T15:56:39;21.10;72.10
12901;DHT22;6518;50.930;5.344;2023-09-19T15:59:07;21.00;72.50
12901;DHT22;6518;50.930;5.344;2023-09-19T16:01:35;20.90;72.80
12901;DHT22;6518;50.930;5.344;2023-09-19T16:04:04;20.80;73.10
12901;DHT22;6518;50.930;5.344;2023-09-19T16:06:35;20.70;73.40
12901;DHT22;6518;50.930;5.344;2023-09-19T16:09:03;20.70;73.60
12901;DHT22;6518;50.930;5.344;2023-09-19T16:11:33;20.60;73.60
12901;DHT22;6518;50.930;5.344;2023-09-19T16:14:01;20.60;73.80
12901;DHT22;6518;50.930;5.344;2023-09-19T16:16:28;20.60;73.80